sensor_id;sensor_type;location;lat;lon;timestamp;P1;durP1;ratioP1;P2;durP2;ratioP2
56481;SDS011;42384;45.186;19.958;2022-10-30T00:00:49;132.93;;;30.63;;
56481;SDS011;42384;45.186;19.958;2022-10-30T00:03:15;247.80;;;34.33;;
56481;SDS011;42384;45.186;19.958;2022-10-30T00:05:42;684.85;;;50.15;;
56481;SDS011;42384;45.186;19.958;2022-10-30T00:08:09;231.65;;;32.83;;
56481;SDS011;42384;45.186;19.958;2022-10-30T00:10:35;204.85;;;34.33;;
56481;SDS011;42384;45.186;19.958;2022-10-30T00:13:01;131.93;;;29.47;;
56481;SDS011;42384;45.186;19.958;2022-10-30T00:15:28;154.47;;;28.80;;
56481;SDS011;42384;45.186;19.958;2022-10-30T00:17:54;149.27;;;28.80;;
56481;SDS011;42384;45.186;19.958;2022-10-30T00:20:20;84.80;;;27.67;;
56481;SDS011;42384;45.186;19.958;2022-10-30T00:22:46;134.37;;;27.33;;
56481;SDS011;42384;45.186;19.958;2022-10-30T00:25:13;119.43;;;28.40;;
56481;SDS011;42384;45.186;19.958;2022-10-30T00:27:39;89.33;;;25.27;;
56481;SDS011;42384;45.186;19.958;2022-10-30T00:30:05;64.07;;;22.53;;
56481;SDS011;42384;45.186;19.958;2022-10-30T00:32:32;114.05;;;23.92;;
56481;SDS011;42384;45.186;19.958;2022-10-30T00:34:58;131.75;;;25.70;;
56481;SDS011;42384;45.186;19.958;2022-10-30T00:37:24;41.30;;;22.25;;
56481;SDS011;42384;45.186;19.958;2022-10-30T00:39:50;25.87;;;21.17;;
56481;SDS011;42384;45.186;19.958;2022-10-30T00:42:17;52.83;;;23.27;;
56481;SDS011;42384;45.186;19.958;2022-10-30T00:47:17;28.67;;;19.63;;
56481;SDS011;42384;45.186;19.958;2022-10-30T00:49:52;63.72;;;21.35;;
56481;SDS011;42384;45.186;19.958;2022-10-30T00:52:20;63.60;;;21.17;;
56481;SDS011;42384;45.186;19.958;2022-10-30T00:54:48;180.30;;;25.77;;
56481;SDS011;42384;45.186;19.958;2022-10-30T00:57:14;146.48;;;25.98;;
56481;SDS011;42384;45.186;19.958;2022-10-30T00:59:40;45.50;;;20.85;;
56481;SDS011;42384;45.186;19.958;2022-10-30T01:02:07;160.23;;;23.90;;
56481;SDS011;42384;45.186;19.958;2022-10-30T01:04:34;31.40;;;19.77;;
56481;SDS011;42384;45.186;19.958;2022-10-30T01:07:05;20.20;;;17.63;;
56481;SDS011;42384;45.186;19.958;2022-10-30T01:09:32;37.03;;;20.15;;
56481;SDS011;42384;45.186;19.958;2022-10-30T01:11:58;60.22;;;21.83;;
56481;SDS011;42384;45.186;19.958;2022-10-30T01:14:25;133.07;;;24.50;;
56481;SDS011;42384;45.186;19.958;2022-10-30T01:19:21;164.93;;;26.05;;
56481;SDS011;42384;45.186;19.958;2022-10-30T01:22:13;131.95;;;26.10;;
56481;SDS011;42384;45.186;19.958;2022-10-30T01:29:47;156.80;;;25.60;;
56481;SDS011;42384;45.186;19.958;2022-10-30T01:37:32;297.90;;;32.25;;
56481;SDS011;42384;45.186;19.958;2022-10-30T01:40:07;290.23;;;32.90;;
56481;SDS011;42384;45.186;19.958;2022-10-30T01:42:44;154.68;;;27.95;;
56481;SDS011;42384;45.186;19.958;2022-10-30T01:50:52;115.45;;;23.95;;
56481;SDS011;42384;45.186;19.958;2022-10-30T01:58:21;193.13;;;25.53;;
56481;SDS011;42384;45.186;19.958;2022-10-30T02:00:49;163.68;;;23.27;;
56481;SDS011;42384;45.186;19.958;2022-10-30T02:03:17;107.70;;;21.20;;
56481;SDS011;42384;45.186;19.958;2022-10-30T02:05:48;41.33;;;18.45;;
56481;SDS011;42384;45.186;19.958;2022-10-30T02:08:15;51.08;;;19.33;;
56481;SDS011;42384;45.186;19.958;2022-10-30T02:10:41;44.58;;;17.15;;
56481;SDS011;42384;45.186;19.958;2022-10-30T02:13:08;29.30;;;17.02;;
56481;SDS011;42384;45.186;19.958;2022-10-30T02:15:34;39.50;;;18.97;;
56481;SDS011;42384;45.186;19.958;2022-10-30T02:18:01;24.80;;;15.20;;
56481;SDS011;42384;45.186;19.958;2022-10-30T02:20:28;82.95;;;18.45;;
56481;SDS011;42384;45.186;19.958;2022-10-30T02:22:54;57.47;;;20.33;;
56481;SDS011;42384;45.186;19.958;2022-10-30T02:25:21;44.35;;;20.65;;
56481;SDS011;42384;45.186;19.958;2022-10-30T02:27:47;56.07;;;22.97;;
56481;SDS011;42384;45.186;19.958;2022-10-30T02:30:13;105.23;;;26.27;;
56481;SDS011;42384;45.186;19.958;2022-10-30T02:32:39;76.50;;;23.95;;
56481;SDS011;42384;45.186;19.958;2022-10-30T02:35:06;67.80;;;23.73;;
56481;SDS011;42384;45.186;19.958;2022-10-30T02:37:33;90.18;;;23.10;;
56481;SDS011;42384;45.186;19.958;2022-10-30T02:40:04;119.57;;;26.98;;
56481;SDS011;42384;45.186;19.958;2022-10-30T02:42:32;170.30;;;28.15;;
56481;SDS011;42384;45.186;19.958;2022-10-30T02:44:59;197.70;;;28.98;;
56481;SDS011;42384;45.186;19.958;2022-10-30T02:47:26;127.10;;;25.30;;
56481;SDS011;42384;45.186;19.958;2022-10-30T02:49:53;92.72;;;22.98;;
56481;SDS011;42384;45.186;19.958;2022-10-30T02:52:19;141.70;;;26.52;;
56481;SDS011;42384;45.186;19.958;2022-10-30T02:54:45;177.67;;;25.80;;
56481;SDS011;42384;45.186;19.958;2022-10-30T02:57:12;269.67;;;33.43;;
56481;SDS011;42384;45.186;19.958;2022-10-30T02:59:38;55.93;;;24.47;;
56481;SDS011;42384;45.186;19.958;2022-10-30T03:02:04;45.10;;;23.53;;
56481;SDS011;42384;45.186;19.958;2022-10-30T03:04:30;31.87;;;20.90;;
56481;SDS011;42384;45.186;19.958;2022-10-30T03:06:57;29.80;;;20.47;;
56481;SDS011;42384;45.186;19.958;2022-10-30T03:09:23;31.03;;;20.97;;
56481;SDS011;42384;45.186;19.958;2022-10-30T03:11:49;23.90;;;18.80;;
56481;SDS011;42384;45.186;19.958;2022-10-30T03:14:15;27.90;;;19.77;;
56481;SDS011;42384;45.186;19.958;2022-10-30T03:16:41;29.13;;;20.27;;
56481;SDS011;42384;45.186;19.958;2022-10-30T03:19:08;26.67;;;18.77;;
56481;SDS011;42384;45.186;19.958;2022-10-30T03:21:34;25.27;;;17.77;;
56481;SDS011;42384;45.186;19.958;2022-10-30T03:24:00;27.57;;;20.80;;
56481;SDS011;42384;45.186;19.958;2022-10-30T03:26:26;28.27;;;22.07;;
56481;SDS011;42384;45.186;19.958;2022-10-30T03:28:53;28.23;;;20.67;;
56481;SDS011;42384;45.186;19.958;2022-10-30T03:31:19;30.73;;;22.13;;
56481;SDS011;42384;45.186;19.958;2022-10-30T03:33:45;28.88;;;21.20;;
56481;SDS011;42384;45.186;19.958;2022-10-30T03:36:12;36.47;;;26.15;;
56481;SDS011;42384;45.186;19.958;2022-10-30T03:38:39;37.60;;;27.48;;
56481;SDS011;42384;45.186;19.958;2022-10-30T03:41:05;40.87;;;29.00;;
56481;SDS011;42384;45.186;19.958;2022-10-30T03:43:32;42.30;;;30.30;;
56481;SDS011;42384;45.186;19.958;2022-10-30T03:45:58;40.22;;;27.85;;
56481;SDS011;42384;45.186;19.958;2022-10-30T03:48:25;36.80;;;27.90;;
56481;SDS011;42384;45.186;19.958;2022-10-30T03:53:18;41.33;;;27.52;;
56481;SDS011;42384;45.186;19.958;2022-10-30T03:55:44;38.53;;;27.10;;
56481;SDS011;42384;45.186;19.958;2022-10-30T03:58:10;38.93;;;28.17;;
56481;SDS011;42384;45.186;19.958;2022-10-30T04:00:37;39.88;;;30.27;;
56481;SDS011;42384;45.186;19.958;2022-10-30T04:03:05;39.73;;;30.53;;
56481;SDS011;42384;45.186;19.958;2022-10-30T04:05:31;40.70;;;32.00;;
56481;SDS011;42384;45.186;19.958;2022-10-30T04:07:58;41.67;;;31.13;;
56481;SDS011;42384;45.186;19.958;2022-10-30T04:10:25;43.78;;;29.10;;
56481;SDS011;42384;45.186;19.958;2022-10-30T04:12:51;54.50;;;32.63;;
56481;SDS011;42384;45.186;19.958;2022-10-30T04:15:18;718.60;;;61.95;;
56481;SDS011;42384;45.186;19.958;2022-10-30T04:17:48;664.27;;;59.73;;
56481;SDS011;42384;45.186;19.958;2022-10-30T04:20:15;493.38;;;50.75;;
56481;SDS011;42384;45.186;19.958;2022-10-30T04:22:42;195.50;;;33.40;;
56481;SDS011;42384;45.186;19.958;2022-10-30T04:25:08;369.02;;;40.90;;
56481;SDS011;42384;45.186;19.958;2022-10-30T04:27:41;321.83;;;36.47;;
56481;SDS011;42384;45.186;19.958;2022-10-30T04:30:08;260.17;;;34.38;;
56481;SDS011;42384;45.186;19.958;2022-10-30T04:32:35;40.65;;;24.55;;
56481;SDS011;42384;45.186;19.958;2022-10-30T04:35:01;114.00;;;27.13;;
56481;SDS011;42384;45.186;19.958;2022-10-30T04:39:54;156.18;;;27.60;;
56481;SDS011;42384;45.186;19.958;2022-10-30T04:42:20;91.77;;;24.87;;
56481;SDS011;42384;45.186;19.958;2022-10-30T04:44:47;98.13;;;26.48;;
56481;SDS011;42384;45.186;19.958;2022-10-30T04:47:13;413.90;;;37.00;;
56481;SDS011;42384;45.186;19.958;2022-10-30T04:49:41;130.57;;;26.40;;
56481;SDS011;42384;45.186;19.958;2022-10-30T04:52:07;432.53;;;39.60;;
56481;SDS011;42384;45.186;19.958;2022-10-30T04:54:34;169.25;;;29.98;;
56481;SDS011;42384;45.186;19.958;2022-10-30T04:57:00;119.93;;;29.07;;
56481;SDS011;42384;45.186;19.958;2022-10-30T04:59:26;130.52;;;28.48;;
56481;SDS011;42384;45.186;19.958;2022-10-30T05:01:52;213.02;;;30.58;;
56481;SDS011;42384;45.186;19.958;2022-10-30T05:04:18;206.13;;;27.63;;
56481;SDS011;42384;45.186;19.958;2022-10-30T05:06:45;239.03;;;31.07;;
56481;SDS011;42384;45.186;19.958;2022-10-30T05:09:11;110.23;;;25.73;;
56481;SDS011;42384;45.186;19.958;2022-10-30T05:11:37;100.77;;;27.07;;
56481;SDS011;42384;45.186;19.958;2022-10-30T05:14:04;78.03;;;25.13;;
56481;SDS011;42384;45.186;19.958;2022-10-30T05:16:30;78.32;;;23.90;;
56481;SDS011;42384;45.186;19.958;2022-10-30T05:18:56;210.77;;;27.70;;
56481;SDS011;42384;45.186;19.958;2022-10-30T05:21:23;150.70;;;24.42;;
56481;SDS011;42384;45.186;19.958;2022-10-30T05:23:49;234.82;;;28.73;;
56481;SDS011;42384;45.186;19.958;2022-10-30T05:26:15;216.07;;;28.37;;
56481;SDS011;42384;45.186;19.958;2022-10-30T05:28:41;168.30;;;26.87;;
56481;SDS011;42384;45.186;19.958;2022-10-30T05:31:08;78.03;;;24.23;;
56481;SDS011;42384;45.186;19.958;2022-10-30T05:33:34;98.73;;;23.97;;
56481;SDS011;42384;45.186;19.958;2022-10-30T05:36:00;106.10;;;24.00;;
56481;SDS011;42384;45.186;19.958;2022-10-30T05:38:26;90.72;;;24.30;;
56481;SDS011;42384;45.186;19.958;2022-10-30T05:40:53;55.33;;;21.35;;
56481;SDS011;42384;45.186;19.958;2022-10-30T05:43:19;107.07;;;24.10;;
56481;SDS011;42384;45.186;19.958;2022-10-30T05:45:47;50.00;;;22.53;;
56481;SDS011;42384;45.186;19.958;2022-10-30T05:48:14;53.97;;;22.98;;
56481;SDS011;42384;45.186;19.958;2022-10-30T05:50:40;34.17;;;21.40;;
56481;SDS011;42384;45.186;19.958;2022-10-30T05:53:06;27.83;;;20.00;;
56481;SDS011;42384;45.186;19.958;2022-10-30T05:55:34;23.98;;;19.05;;
56481;SDS011;42384;45.186;19.958;2022-10-30T05:58:03;25.60;;;19.02;;
56481;SDS011;42384;45.186;19.958;2022-10-30T06:00:31;44.63;;;21.70;;
56481;SDS011;42384;45.186;19.958;2022-10-30T06:03:01;38.03;;;21.60;;
56481;SDS011;42384;45.186;19.958;2022-10-30T06:05:30;36.03;;;22.83;;
56481;SDS011;42384;45.186;19.958;2022-10-30T06:07:57;36.63;;;22.23;;
56481;SDS011;42384;45.186;19.958;2022-10-30T06:10:23;37.70;;;23.20;;
56481;SDS011;42384;45.186;19.958;2022-10-30T06:12:53;44.75;;;24.63;;
56481;SDS011;42384;45.186;19.958;2022-10-30T06:15:19;56.97;;;25.00;;
56481;SDS011;42384;45.186;19.958;2022-10-30T06:17:46;55.72;;;24.02;;
56481;SDS011;42384;45.186;19.958;2022-10-30T06:20:12;81.57;;;23.05;;
56481;SDS011;42384;45.186;19.958;2022-10-30T06:22:38;77.18;;;23.30;;
56481;SDS011;42384;45.186;19.958;2022-10-30T06:25:05;66.57;;;23.92;;
56481;SDS011;42384;45.186;19.958;2022-10-30T06:27:34;68.07;;;24.98;;
56481;SDS011;42384;45.186;19.958;2022-10-30T06:30:00;59.88;;;24.45;;
56481;SDS011;42384;45.186;19.958;2022-10-30T06:32:26;119.03;;;25.80;;
56481;SDS011;42384;45.186;19.958;2022-10-30T06:34:53;51.10;;;23.93;;
56481;SDS011;42384;45.186;19.958;2022-10-30T06:37:19;77.67;;;24.77;;
56481;SDS011;42384;45.186;19.958;2022-10-30T06:39:45;55.77;;;25.10;;
56481;SDS011;42384;45.186;19.958;2022-10-30T06:42:12;70.53;;;23.90;;
56481;SDS011;42384;45.186;19.958;2022-10-30T06:44:39;70.53;;;23.47;;
56481;SDS011;42384;45.186;19.958;2022-10-30T06:47:05;132.33;;;26.60;;
56481;SDS011;42384;45.186;19.958;2022-10-30T06:49:31;70.00;;;24.10;;
56481;SDS011;42384;45.186;19.958;2022-10-30T06:51:57;35.95;;;22.40;;
56481;SDS011;42384;45.186;19.958;2022-10-30T06:54:23;41.42;;;24.88;;
56481;SDS011;42384;45.186;19.958;2022-10-30T06:56:50;62.70;;;26.50;;
56481;SDS011;42384;45.186;19.958;2022-10-30T06:59:16;43.83;;;25.48;;
56481;SDS011;42384;45.186;19.958;2022-10-30T07:01:42;93.68;;;28.15;;
56481;SDS011;42384;45.186;19.958;2022-10-30T07:04:09;62.23;;;26.50;;
56481;SDS011;42384;45.186;19.958;2022-10-30T07:06:35;49.00;;;24.73;;
56481;SDS011;42384;45.186;19.958;2022-10-30T07:09:01;117.35;;;28.58;;
56481;SDS011;42384;45.186;19.958;2022-10-30T07:11:27;348.83;;;37.90;;
56481;SDS011;42384;45.186;19.958;2022-10-30T07:13:54;99.37;;;27.67;;
56481;SDS011;42384;45.186;19.958;2022-10-30T07:16:20;600.33;;;52.53;;
56481;SDS011;42384;45.186;19.958;2022-10-30T07:18:46;44.13;;;23.60;;
56481;SDS011;42384;45.186;19.958;2022-10-30T07:21:12;75.77;;;26.10;;
56481;SDS011;42384;45.186;19.958;2022-10-30T07:23:39;40.37;;;23.97;;
56481;SDS011;42384;45.186;19.958;2022-10-30T07:26:05;46.53;;;24.83;;
56481;SDS011;42384;45.186;19.958;2022-10-30T07:28:32;39.20;;;25.35;;
56481;SDS011;42384;45.186;19.958;2022-10-30T07:30:58;35.40;;;25.52;;
56481;SDS011;42384;45.186;19.958;2022-10-30T07:33:24;41.88;;;25.50;;
56481;SDS011;42384;45.186;19.958;2022-10-30T07:35:51;49.38;;;26.33;;
56481;SDS011;42384;45.186;19.958;2022-10-30T07:38:17;53.77;;;26.43;;
56481;SDS011;42384;45.186;19.958;2022-10-30T07:40:50;95.03;;;27.85;;
56481;SDS011;42384;45.186;19.958;2022-10-30T07:43:16;69.07;;;26.02;;
56481;SDS011;42384;45.186;19.958;2022-10-30T07:45:43;44.60;;;25.60;;
56481;SDS011;42384;45.186;19.958;2022-10-30T07:48:10;38.28;;;26.42;;
56481;SDS011;42384;45.186;19.958;2022-10-30T07:50:36;41.77;;;26.10;;
56481;SDS011;42384;45.186;19.958;2022-10-30T07:53:02;43.60;;;26.67;;
56481;SDS011;42384;45.186;19.958;2022-10-30T07:55:28;57.72;;;24.77;;
56481;SDS011;42384;45.186;19.958;2022-10-30T07:57:54;44.40;;;26.80;;
56481;SDS011;42384;45.186;19.958;2022-10-30T08:00:21;37.13;;;27.13;;
56481;SDS011;42384;45.186;19.958;2022-10-30T08:02:48;34.17;;;25.37;;
56481;SDS011;42384;45.186;19.958;2022-10-30T08:05:14;32.40;;;24.42;;
56481;SDS011;42384;45.186;19.958;2022-10-30T08:07:41;36.88;;;26.95;;
56481;SDS011;42384;45.186;19.958;2022-10-30T08:10:07;42.27;;;30.17;;
56481;SDS011;42384;45.186;19.958;2022-10-30T08:12:33;36.25;;;27.30;;
56481;SDS011;42384;45.186;19.958;2022-10-30T08:15:00;33.65;;;24.80;;
56481;SDS011;42384;45.186;19.958;2022-10-30T08:17:26;38.22;;;24.27;;
56481;SDS011;42384;45.186;19.958;2022-10-30T08:19:53;35.92;;;25.73;;
56481;SDS011;42384;45.186;19.958;2022-10-30T08:22:21;36.55;;;26.45;;
56481;SDS011;42384;45.186;19.958;2022-10-30T08:24:47;38.92;;;27.23;;
56481;SDS011;42384;45.186;19.958;2022-10-30T08:27:13;31.77;;;24.83;;
56481;SDS011;42384;45.186;19.958;2022-10-30T08:29:40;38.72;;;26.02;;
56481;SDS011;42384;45.186;19.958;2022-10-30T08:32:06;32.23;;;25.27;;
56481;SDS011;42384;45.186;19.958;2022-10-30T08:34:32;36.42;;;27.10;;
56481;SDS011;42384;45.186;19.958;2022-10-30T08:36:59;33.92;;;26.48;;
56481;SDS011;42384;45.186;19.958;2022-10-30T08:39:25;36.90;;;26.55;;
56481;SDS011;42384;45.186;19.958;2022-10-30T08:41:58;38.50;;;27.13;;
56481;SDS011;42384;45.186;19.958;2022-10-30T08:44:25;36.13;;;27.70;;
56481;SDS011;42384;45.186;19.958;2022-10-30T08:46:51;40.20;;;27.52;;
56481;SDS011;42384;45.186;19.958;2022-10-30T08:49:17;36.25;;;25.85;;
56481;SDS011;42384;45.186;19.958;2022-10-30T08:51:43;37.83;;;26.30;;
56481;SDS011;42384;45.186;19.958;2022-10-30T08:54:10;31.50;;;25.85;;
56481;SDS011;42384;45.186;19.958;2022-10-30T08:56:36;32.90;;;25.95;;
56481;SDS011;42384;45.186;19.958;2022-10-30T08:59:02;39.40;;;26.77;;
56481;SDS011;42384;45.186;19.958;2022-10-30T09:01:29;33.35;;;25.65;;
56481;SDS011;42384;45.186;19.958;2022-10-30T09:03:55;35.80;;;28.15;;
56481;SDS011;42384;45.186;19.958;2022-10-30T09:06:21;37.08;;;29.08;;
56481;SDS011;42384;45.186;19.958;2022-10-30T09:08:47;38.45;;;32.00;;
56481;SDS011;42384;45.186;19.958;2022-10-30T09:11:14;38.10;;;29.45;;
56481;SDS011;42384;45.186;19.958;2022-10-30T09:13:41;42.97;;;30.42;;
56481;SDS011;42384;45.186;19.958;2022-10-30T09:16:07;39.30;;;30.60;;
56481;SDS011;42384;45.186;19.958;2022-10-30T09:18:34;33.15;;;27.77;;
56481;SDS011;42384;45.186;19.958;2022-10-30T09:21:00;36.97;;;29.00;;
56481;SDS011;42384;45.186;19.958;2022-10-30T09:23:26;35.47;;;28.67;;
56481;SDS011;42384;45.186;19.958;2022-10-30T09:25:55;37.08;;;27.50;;
56481;SDS011;42384;45.186;19.958;2022-10-30T09:28:22;33.67;;;27.48;;
56481;SDS011;42384;45.186;19.958;2022-10-30T09:30:48;38.40;;;28.73;;
56481;SDS011;42384;45.186;19.958;2022-10-30T09:33:17;34.10;;;27.85;;
56481;SDS011;42384;45.186;19.958;2022-10-30T09:35:43;38.72;;;31.38;;
56481;SDS011;42384;45.186;19.958;2022-10-30T09:38:09;39.83;;;31.08;;
56481;SDS011;42384;45.186;19.958;2022-10-30T09:43:20;35.42;;;29.60;;
56481;SDS011;42384;45.186;19.958;2022-10-30T09:46:01;45.08;;;33.78;;
56481;SDS011;42384;45.186;19.958;2022-10-30T09:48:34;44.63;;;34.08;;
56481;SDS011;42384;45.186;19.958;2022-10-30T09:53:40;44.45;;;33.97;;
56481;SDS011;42384;45.186;19.958;2022-10-30T10:01:20;44.80;;;35.10;;
56481;SDS011;42384;45.186;19.958;2022-10-30T10:04:00;47.53;;;34.88;;
56481;SDS011;42384;45.186;19.958;2022-10-30T10:06:29;46.55;;;34.85;;
56481;SDS011;42384;45.186;19.958;2022-10-30T10:08:58;46.28;;;35.78;;
56481;SDS011;42384;45.186;19.958;2022-10-30T10:11:35;50.38;;;35.85;;
56481;SDS011;42384;45.186;19.958;2022-10-30T10:14:15;53.67;;;39.28;;
56481;SDS011;42384;45.186;19.958;2022-10-30T10:16:43;56.42;;;38.78;;
56481;SDS011;42384;45.186;19.958;2022-10-30T10:21:42;56.10;;;38.97;;
56481;SDS011;42384;45.186;19.958;2022-10-30T10:24:13;72.43;;;43.55;;
56481;SDS011;42384;45.186;19.958;2022-10-30T10:26:47;57.22;;;41.03;;
56481;SDS011;42384;45.186;19.958;2022-10-30T10:40:01;72.80;;;48.13;;
56481;SDS011;42384;45.186;19.958;2022-10-30T10:42:38;78.57;;;52.05;;
56481;SDS011;42384;45.186;19.958;2022-10-30T10:45:27;96.75;;;66.55;;
56481;SDS011;42384;45.186;19.958;2022-10-30T10:50:24;85.50;;;56.95;;
56481;SDS011;42384;45.186;19.958;2022-10-30T10:52:53;88.85;;;58.15;;
56481;SDS011;42384;45.186;19.958;2022-10-30T10:55:22;88.32;;;54.13;;
56481;SDS011;42384;45.186;19.958;2022-10-30T10:57:49;79.43;;;53.47;;
56481;SDS011;42384;45.186;19.958;2022-10-30T11:00:17;82.00;;;56.15;;
56481;SDS011;42384;45.186;19.958;2022-10-30T11:07:43;69.97;;;46.93;;
56481;SDS011;42384;45.186;19.958;2022-10-30T11:10:11;64.70;;;45.28;;
56481;SDS011;42384;45.186;19.958;2022-10-30T11:12:38;73.30;;;46.38;;
56481;SDS011;42384;45.186;19.958;2022-10-30T11:15:19;68.38;;;46.60;;
56481;SDS011;42384;45.186;19.958;2022-10-30T11:20:21;62.10;;;44.40;;
56481;SDS011;42384;45.186;19.958;2022-10-30T11:22:48;60.13;;;41.70;;
56481;SDS011;42384;45.186;19.958;2022-10-30T11:25:19;64.53;;;43.95;;
56481;SDS011;42384;45.186;19.958;2022-10-30T11:27:46;51.75;;;38.95;;
56481;SDS011;42384;45.186;19.958;2022-10-30T11:30:17;54.30;;;38.65;;
56481;SDS011;42384;45.186;19.958;2022-10-30T11:32:44;51.03;;;37.58;;
56481;SDS011;42384;45.186;19.958;2022-10-30T11:35:11;49.95;;;35.95;;
56481;SDS011;42384;45.186;19.958;2022-10-30T11:37:39;45.47;;;34.55;;
56481;SDS011;42384;45.186;19.958;2022-10-30T11:42:38;48.58;;;35.42;;
56481;SDS011;42384;45.186;19.958;2022-10-30T11:45:04;153.63;;;110.43;;
56481;SDS011;42384;45.186;19.958;2022-10-30T11:47:34;51.47;;;37.10;;
56481;SDS011;42384;45.186;19.958;2022-10-30T11:50:05;65.63;;;48.40;;
56481;SDS011;42384;45.186;19.958;2022-10-30T11:52:36;53.58;;;39.78;;
56481;SDS011;42384;45.186;19.958;2022-10-30T11:55:17;44.13;;;35.70;;
56481;SDS011;42384;45.186;19.958;2022-10-30T11:57:45;47.83;;;34.55;;
56481;SDS011;42384;45.186;19.958;2022-10-30T12:00:14;77.68;;;54.05;;
56481;SDS011;42384;45.186;19.958;2022-10-30T12:02:42;88.63;;;63.03;;
56481;SDS011;42384;45.186;19.958;2022-10-30T12:07:51;49.00;;;36.55;;
56481;SDS011;42384;45.186;19.958;2022-10-30T12:10:23;45.13;;;37.03;;
56481;SDS011;42384;45.186;19.958;2022-10-30T12:12:50;50.15;;;36.50;;
56481;SDS011;42384;45.186;19.958;2022-10-30T12:15:20;46.95;;;36.88;;
56481;SDS011;42384;45.186;19.958;2022-10-30T12:17:52;48.55;;;37.17;;
56481;SDS011;42384;45.186;19.958;2022-10-30T12:20:18;44.13;;;36.80;;
56481;SDS011;42384;45.186;19.958;2022-10-30T12:22:45;44.45;;;34.85;;
56481;SDS011;42384;45.186;19.958;2022-10-30T12:25:18;47.47;;;35.58;;
56481;SDS011;42384;45.186;19.958;2022-10-30T12:27:45;43.05;;;32.80;;
56481;SDS011;42384;45.186;19.958;2022-10-30T12:32:40;39.80;;;33.65;;
56481;SDS011;42384;45.186;19.958;2022-10-30T12:37:41;40.50;;;32.28;;
56481;SDS011;42384;45.186;19.958;2022-10-30T12:40:22;46.40;;;31.73;;
56481;SDS011;42384;45.186;19.958;2022-10-30T12:43:34;52.05;;;33.83;;
56481;SDS011;42384;45.186;19.958;2022-10-30T12:45:47;42.80;;;33.35;;
56481;SDS011;42384;45.186;19.958;2022-10-30T12:48:16;37.78;;;32.63;;
56481;SDS011;42384;45.186;19.958;2022-10-30T12:50:50;41.47;;;32.97;;
56481;SDS011;42384;45.186;19.958;2022-10-30T12:56:07;44.00;;;33.58;;
56481;SDS011;42384;45.186;19.958;2022-10-30T12:58:46;41.95;;;33.03;;
56481;SDS011;42384;45.186;19.958;2022-10-30T13:01:26;41.38;;;33.88;;
56481;SDS011;42384;45.186;19.958;2022-10-30T13:04:00;47.78;;;34.42;;
56481;SDS011;42384;45.186;19.958;2022-10-30T13:06:29;43.65;;;36.53;;
56481;SDS011;42384;45.186;19.958;2022-10-30T13:09:13;45.65;;;36.20;;
56481;SDS011;42384;45.186;19.958;2022-10-30T13:14:12;44.10;;;38.08;;
56481;SDS011;42384;45.186;19.958;2022-10-30T13:16:39;45.63;;;36.42;;
56481;SDS011;42384;45.186;19.958;2022-10-30T13:19:07;42.53;;;37.65;;
56481;SDS011;42384;45.186;19.958;2022-10-30T13:21:42;43.88;;;38.03;;
56481;SDS011;42384;45.186;19.958;2022-10-30T13:24:17;48.50;;;39.75;;
56481;SDS011;42384;45.186;19.958;2022-10-30T13:34:53;50.28;;;41.55;;
56481;SDS011;42384;45.186;19.958;2022-10-30T13:37:28;55.03;;;41.15;;
56481;SDS011;42384;45.186;19.958;2022-10-30T13:53:12;56.88;;;44.83;;
56481;SDS011;42384;45.186;19.958;2022-10-30T13:55:39;59.85;;;49.30;;
56481;SDS011;42384;45.186;19.958;2022-10-30T13:58:13;60.83;;;48.33;;
56481;SDS011;42384;45.186;19.958;2022-10-30T14:03:26;61.35;;;48.88;;
56481;SDS011;42384;45.186;19.958;2022-10-30T14:08:32;57.83;;;46.60;;
56481;SDS011;42384;45.186;19.958;2022-10-30T14:10:59;58.35;;;46.20;;
56481;SDS011;42384;45.186;19.958;2022-10-30T14:13:44;63.25;;;47.55;;
56481;SDS011;42384;45.186;19.958;2022-10-30T14:19:02;60.00;;;46.92;;
56481;SDS011;42384;45.186;19.958;2022-10-30T14:21:42;60.40;;;47.22;;
56481;SDS011;42384;45.186;19.958;2022-10-30T14:24:15;61.35;;;45.90;;
56481;SDS011;42384;45.186;19.958;2022-10-30T14:26:49;62.42;;;47.70;;
56481;SDS011;42384;45.186;19.958;2022-10-30T14:29:58;59.13;;;46.05;;
56481;SDS011;42384;45.186;19.958;2022-10-30T14:34:43;66.70;;;49.58;;
56481;SDS011;42384;45.186;19.958;2022-10-30T14:37:10;56.30;;;44.20;;
56481;SDS011;42384;45.186;19.958;2022-10-30T14:55:37;65.18;;;47.78;;
56481;SDS011;42384;45.186;19.958;2022-10-30T15:08:06;152.75;;;102.45;;
56481;SDS011;42384;45.186;19.958;2022-10-30T15:10:37;168.35;;;111.75;;
56481;SDS011;42384;45.186;19.958;2022-10-30T15:13:19;120.63;;;86.88;;
56481;SDS011;42384;45.186;19.958;2022-10-30T15:15:56;86.00;;;63.05;;
56481;SDS011;42384;45.186;19.958;2022-10-30T15:18:23;70.97;;;51.28;;
56481;SDS011;42384;45.186;19.958;2022-10-30T15:20:50;75.70;;;53.38;;
56481;SDS011;42384;45.186;19.958;2022-10-30T15:23:21;67.65;;;50.33;;
56481;SDS011;42384;45.186;19.958;2022-10-30T15:25:52;65.47;;;49.92;;
56481;SDS011;42384;45.186;19.958;2022-10-30T15:28:20;64.47;;;49.67;;
56481;SDS011;42384;45.186;19.958;2022-10-30T15:31:01;70.50;;;49.83;;
56481;SDS011;42384;45.186;19.958;2022-10-30T15:33:28;63.58;;;48.13;;
56481;SDS011;42384;45.186;19.958;2022-10-30T15:35:57;63.10;;;47.95;;
56481;SDS011;42384;45.186;19.958;2022-10-30T15:38:23;63.08;;;48.63;;
56481;SDS011;42384;45.186;19.958;2022-10-30T15:40:49;66.88;;;48.10;;
56481;SDS011;42384;45.186;19.958;2022-10-30T15:43:27;63.88;;;48.45;;
56481;SDS011;42384;45.186;19.958;2022-10-30T15:45:54;63.78;;;48.67;;
56481;SDS011;42384;45.186;19.958;2022-10-30T15:48:27;65.53;;;49.08;;
56481;SDS011;42384;45.186;19.958;2022-10-30T15:51:03;75.53;;;50.08;;
56481;SDS011;42384;45.186;19.958;2022-10-30T15:53:43;71.25;;;51.15;;
56481;SDS011;42384;45.186;19.958;2022-10-30T15:56:32;67.88;;;50.30;;
56481;SDS011;42384;45.186;19.958;2022-10-30T15:59:00;77.75;;;55.47;;
56481;SDS011;42384;45.186;19.958;2022-10-30T16:01:31;164.82;;;108.03;;
56481;SDS011;42384;45.186;19.958;2022-10-30T16:03:58;116.47;;;71.45;;
56481;SDS011;42384;45.186;19.958;2022-10-30T16:06:29;116.72;;;71.70;;
56481;SDS011;42384;45.186;19.958;2022-10-30T16:08:55;122.30;;;73.05;;
56481;SDS011;42384;45.186;19.958;2022-10-30T16:11:23;123.80;;;75.38;;
56481;SDS011;42384;45.186;19.958;2022-10-30T16:13:49;127.82;;;73.22;;
56481;SDS011;42384;45.186;19.958;2022-10-30T16:16:26;149.57;;;79.75;;
56481;SDS011;42384;45.186;19.958;2022-10-30T16:18:53;154.68;;;80.43;;
56481;SDS011;42384;45.186;19.958;2022-10-30T16:21:23;166.55;;;83.72;;
56481;SDS011;42384;45.186;19.958;2022-10-30T16:23:54;166.82;;;81.22;;
56481;SDS011;42384;45.186;19.958;2022-10-30T16:26:25;178.50;;;86.40;;
56481;SDS011;42384;45.186;19.958;2022-10-30T16:28:54;182.13;;;82.65;;
56481;SDS011;42384;45.186;19.958;2022-10-30T16:33:48;176.48;;;82.65;;